Terminal Aerodrome Forecast
Issued by NWS Melbourne, FL

Home | Current Version | Previous Version | Text Only | Print | Product List | Glossary On
Versions: 1 2 3 4 5 6 7 8 9 10 11 12 13
000
FTUS42 KMLB 302300
TAFDAB
TAF
KDAB 302322Z 3100/3124 12003KT P6SM FEW030 FEW250
     FM310800 00000KT P6SM FEW100
     FM311400 12005KT P6SM FEW030 FEW150 SCT250=

USA.gov is the U.S. government's official web portal to all federal, state and local government web resources and services.